sensor_id;sensor_type;location;lat;lon;timestamp;pressure;altitude;pressure_sealevel;temperature;humidity
31225;BME280;17847;31.524;74.366;2023-05-23T00:00:48;97975.06;;;30.81;63.24
31225;BME280;17847;31.524;74.366;2023-05-23T00:03:19;97969.28;;;30.70;63.13
31225;BME280;17847;31.524;74.366;2023-05-23T00:05:52;97974.03;;;30.73;63.94
31225;BME280;17847;31.524;74.366;2023-05-23T00:08:21;97965.84;;;30.73;64.93
31225;BME280;17847;31.524;74.366;2023-05-23T00:10:51;97971.31;;;30.73;63.60
31225;BME280;17847;31.524;74.366;2023-05-23T00:13:21;97965.03;;;30.72;63.40
31225;BME280;17847;31.524;74.366;2023-05-23T00:15:51;97969.84;;;30.75;63.77
31225;BME280;17847;31.524;74.366;2023-05-23T00:18:20;97973.34;;;30.76;64.57
31225;BME280;17847;31.524;74.366;2023-05-23T00:20:52;97970.19;;;30.74;64.51
31225;BME280;17847;31.524;74.366;2023-05-23T00:23:21;97985.47;;;30.75;64.29
31225;BME280;17847;31.524;74.366;2023-05-23T00:25:53;97988.84;;;30.72;63.50
31225;BME280;17847;31.524;74.366;2023-05-23T00:28:23;98000.69;;;30.76;63.68
31225;BME280;17847;31.524;74.366;2023-05-23T00:30:53;97996.84;;;30.77;62.84
31225;BME280;17847;31.524;74.366;2023-05-23T00:33:23;97992.75;;;30.83;63.60
31225;BME280;17847;31.524;74.366;2023-05-23T00:35:52;97992.84;;;30.87;63.95
31225;BME280;17847;31.524;74.366;2023-05-23T00:38:22;97985.34;;;30.84;63.85
31225;BME280;17847;31.524;74.366;2023-05-23T00:40:51;98006.75;;;30.94;63.88
31225;BME280;17847;31.524;74.366;2023-05-23T00:43:20;98007.53;;;30.94;63.89
31225;BME280;17847;31.524;74.366;2023-05-23T00:45:51;98004.81;;;30.94;63.15
31225;BME280;17847;31.524;74.366;2023-05-23T00:48:20;98015.53;;;30.99;63.48
31225;BME280;17847;31.524;74.366;2023-05-23T00:50:50;98021.94;;;31.03;62.32
31225;BME280;17847;31.524;74.366;2023-05-23T00:53:20;98022.84;;;31.07;62.20
31225;BME280;17847;31.524;74.366;2023-05-23T00:55:50;98027.66;;;31.10;61.20
31225;BME280;17847;31.524;74.366;2023-05-23T00:58:20;98032.41;;;31.13;60.07
31225;BME280;17847;31.524;74.366;2023-05-23T01:00:49;98031.28;;;31.14;58.92
31225;BME280;17847;31.524;74.366;2023-05-23T01:03:22;98031.84;;;31.20;58.26
31225;BME280;17847;31.524;74.366;2023-05-23T01:05:56;98036.97;;;31.21;57.87
31225;BME280;17847;31.524;74.366;2023-05-23T01:08:28;98042.81;;;31.20;58.81
31225;BME280;17847;31.524;74.366;2023-05-23T01:11:00;98036.53;;;31.19;57.70
31225;BME280;17847;31.524;74.366;2023-05-23T01:13:40;98040.16;;;31.24;56.85
31225;BME280;17847;31.524;74.366;2023-05-23T01:18:47;98047.66;;;31.39;56.72
31225;BME280;17847;31.524;74.366;2023-05-23T01:21:23;98042.41;;;31.46;55.31
31225;BME280;17847;31.524;74.366;2023-05-23T01:29:20;98038.75;;;31.66;57.69
31225;BME280;17847;31.524;74.366;2023-05-23T01:31:53;98048.78;;;31.62;58.67
31225;BME280;17847;31.524;74.366;2023-05-23T01:34:23;98057.00;;;31.62;58.87
31225;BME280;17847;31.524;74.366;2023-05-23T01:36:56;98062.50;;;31.62;59.31
31225;BME280;17847;31.524;74.366;2023-05-23T01:39:25;98066.81;;;31.63;57.90
31225;BME280;17847;31.524;74.366;2023-05-23T01:41:55;98071.75;;;31.57;59.52
31225;BME280;17847;31.524;74.366;2023-05-23T01:44:25;98076.88;;;31.59;60.84
31225;BME280;17847;31.524;74.366;2023-05-23T01:46:54;98083.97;;;31.60;61.28
31225;BME280;17847;31.524;74.366;2023-05-23T01:49:25;98078.91;;;31.62;60.66
31225;BME280;17847;31.524;74.366;2023-05-23T01:51:59;98083.09;;;31.84;59.92
31225;BME280;17847;31.524;74.366;2023-05-23T01:54:30;98068.72;;;32.15;58.44
31225;BME280;17847;31.524;74.366;2023-05-23T01:57:00;98077.84;;;32.46;55.79
31225;BME280;17847;31.524;74.366;2023-05-23T01:59:32;98081.72;;;32.73;58.88
31225;BME280;17847;31.524;74.366;2023-05-23T02:02:01;98083.38;;;32.93;56.73
31225;BME280;17847;31.524;74.366;2023-05-23T02:04:31;98088.88;;;33.25;57.56
31225;BME280;17847;31.524;74.366;2023-05-23T02:07:00;98087.09;;;33.48;56.55
31225;BME280;17847;31.524;74.366;2023-05-23T02:09:30;98087.38;;;33.78;54.35
31225;BME280;17847;31.524;74.366;2023-05-23T02:11:59;98089.50;;;34.04;53.07
31225;BME280;17847;31.524;74.366;2023-05-23T02:14:29;98101.94;;;33.98;54.52
31225;BME280;17847;31.524;74.366;2023-05-23T02:16:58;98098.63;;;34.27;52.12
31225;BME280;17847;31.524;74.366;2023-05-23T02:19:28;98107.81;;;34.54;49.43
31225;BME280;17847;31.524;74.366;2023-05-23T02:21:58;98108.59;;;34.74;48.16
31225;BME280;17847;31.524;74.366;2023-05-23T02:24:27;98105.22;;;35.06;50.87
31225;BME280;17847;31.524;74.366;2023-05-23T02:26:57;98103.13;;;34.96;45.19
31225;BME280;17847;31.524;74.366;2023-05-23T02:29:26;98104.66;;;35.17;48.37
31225;BME280;17847;31.524;74.366;2023-05-23T02:31:55;98100.47;;;35.03;49.53
31225;BME280;17847;31.524;74.366;2023-05-23T02:34:25;98105.72;;;35.12;47.22
31225;BME280;17847;31.524;74.366;2023-05-23T02:36:54;98110.56;;;35.19;54.60
31225;BME280;17847;31.524;74.366;2023-05-23T02:39:23;98109.78;;;35.18;54.93
31225;BME280;17847;31.524;74.366;2023-05-23T02:41:53;98109.72;;;35.41;54.73
31225;BME280;17847;31.524;74.366;2023-05-23T02:44:25;98113.09;;;35.27;50.33
31225;BME280;17847;31.524;74.366;2023-05-23T02:46:54;98110.69;;;35.75;52.62
31225;BME280;17847;31.524;74.366;2023-05-23T02:49:23;98110.19;;;35.99;47.72
31225;BME280;17847;31.524;74.366;2023-05-23T02:51:53;98112.13;;;35.95;54.30
31225;BME280;17847;31.524;74.366;2023-05-23T02:54:22;98102.19;;;36.17;50.12
31225;BME280;17847;31.524;74.366;2023-05-23T02:56:52;98106.75;;;36.35;43.01
31225;BME280;17847;31.524;74.366;2023-05-23T02:59:22;98107.41;;;36.59;49.33
31225;BME280;17847;31.524;74.366;2023-05-23T03:01:51;98105.34;;;36.52;50.78
31225;BME280;17847;31.524;74.366;2023-05-23T03:04:21;98119.56;;;36.54;51.66
31225;BME280;17847;31.524;74.366;2023-05-23T03:06:51;98112.06;;;36.91;42.75
31225;BME280;17847;31.524;74.366;2023-05-23T03:09:22;98114.28;;;36.75;46.27
31225;BME280;17847;31.524;74.366;2023-05-23T03:11:51;98113.03;;;36.32;46.22
31225;BME280;17847;31.524;74.366;2023-05-23T03:14:22;98112.63;;;36.04;45.28
31225;BME280;17847;31.524;74.366;2023-05-23T03:16:51;98120.53;;;35.76;48.94
31225;BME280;17847;31.524;74.366;2023-05-23T03:19:20;98118.19;;;35.78;46.20
31225;BME280;17847;31.524;74.366;2023-05-23T03:21:50;98123.06;;;35.88;47.76
31225;BME280;17847;31.524;74.366;2023-05-23T03:24:20;98123.34;;;36.09;49.66
31225;BME280;17847;31.524;74.366;2023-05-23T03:26:49;98127.75;;;36.14;49.00
31225;BME280;17847;31.524;74.366;2023-05-23T03:29:19;98117.09;;;36.12;45.83
31225;BME280;17847;31.524;74.366;2023-05-23T03:31:48;98118.88;;;36.27;48.64
31225;BME280;17847;31.524;74.366;2023-05-23T03:34:18;98122.63;;;36.45;46.65
31225;BME280;17847;31.524;74.366;2023-05-23T03:36:48;98117.59;;;36.55;48.26
31225;BME280;17847;31.524;74.366;2023-05-23T03:39:17;98124.78;;;36.59;45.47
31225;BME280;17847;31.524;74.366;2023-05-23T03:41:47;98126.13;;;36.76;47.28
31225;BME280;17847;31.524;74.366;2023-05-23T03:44:17;98115.16;;;36.83;45.60
31225;BME280;17847;31.524;74.366;2023-05-23T03:46:46;98118.38;;;36.92;45.94
31225;BME280;17847;31.524;74.366;2023-05-23T03:49:16;98124.69;;;36.89;45.88
31225;BME280;17847;31.524;74.366;2023-05-23T03:51:47;98122.34;;;36.91;47.36
31225;BME280;17847;31.524;74.366;2023-05-23T03:54:16;98123.19;;;36.95;48.44
31225;BME280;17847;31.524;74.366;2023-05-23T03:56:46;98115.16;;;36.83;46.88
31225;BME280;17847;31.524;74.366;2023-05-23T03:59:16;98128.13;;;37.16;44.71
31225;BME280;17847;31.524;74.366;2023-05-23T04:01:46;98131.41;;;37.35;45.58
31225;BME280;17847;31.524;74.366;2023-05-23T04:04:16;98136.06;;;37.24;46.28
31225;BME280;17847;31.524;74.366;2023-05-23T04:06:46;98131.66;;;37.16;44.55
31225;BME280;17847;31.524;74.366;2023-05-23T04:09:15;98136.22;;;37.42;43.65
31225;BME280;17847;31.524;74.366;2023-05-23T04:11:47;98137.06;;;37.50;47.42
31225;BME280;17847;31.524;74.366;2023-05-23T04:14:18;98146.28;;;37.64;46.12
31225;BME280;17847;31.524;74.366;2023-05-23T04:16:50;98145.44;;;37.57;46.07
31225;BME280;17847;31.524;74.366;2023-05-23T04:19:20;98137.84;;;37.50;42.67
31225;BME280;17847;31.524;74.366;2023-05-23T04:21:51;98133.25;;;37.65;41.36
31225;BME280;17847;31.524;74.366;2023-05-23T04:24:22;98136.47;;;37.77;44.72
31225;BME280;17847;31.524;74.366;2023-05-23T04:26:52;98133.13;;;38.12;38.97
31225;BME280;17847;31.524;74.366;2023-05-23T04:29:24;98132.41;;;38.22;43.24
31225;BME280;17847;31.524;74.366;2023-05-23T04:31:54;98130.44;;;38.23;36.91
31225;BME280;17847;31.524;74.366;2023-05-23T04:34:24;98119.81;;;38.36;37.37
31225;BME280;17847;31.524;74.366;2023-05-23T04:36:53;98131.25;;;38.38;39.68
31225;BME280;17847;31.524;74.366;2023-05-23T04:39:23;98128.50;;;38.38;38.40
31225;BME280;17847;31.524;74.366;2023-05-23T04:42:11;98134.91;;;38.49;41.54
31225;BME280;17847;31.524;74.366;2023-05-23T04:45:14;98134.94;;;38.70;40.40
31225;BME280;17847;31.524;74.366;2023-05-23T04:48:07;98125.84;;;38.59;42.23
31225;BME280;17847;31.524;74.366;2023-05-23T04:50:42;98123.44;;;38.54;35.79
31225;BME280;17847;31.524;74.366;2023-05-23T04:53:17;98132.97;;;38.67;43.10
31225;BME280;17847;31.524;74.366;2023-05-23T04:55:47;98132.22;;;38.91;39.37
31225;BME280;17847;31.524;74.366;2023-05-23T04:58:17;98132.66;;;39.07;37.30
31225;BME280;17847;31.524;74.366;2023-05-23T05:00:49;98125.13;;;39.15;35.84
31225;BME280;17847;31.524;74.366;2023-05-23T05:03:18;98128.69;;;39.23;36.26
31225;BME280;17847;31.524;74.366;2023-05-23T05:05:48;98134.66;;;39.32;37.88
31225;BME280;17847;31.524;74.366;2023-05-23T05:08:17;98130.28;;;39.17;35.19
31225;BME280;17847;31.524;74.366;2023-05-23T05:10:49;98133.03;;;39.09;34.34
31225;BME280;17847;31.524;74.366;2023-05-23T05:13:20;98134.66;;;39.35;35.83
31225;BME280;17847;31.524;74.366;2023-05-23T05:15:52;98135.03;;;39.44;34.34
31225;BME280;17847;31.524;74.366;2023-05-23T05:18:26;98127.13;;;39.46;36.09
31225;BME280;17847;31.524;74.366;2023-05-23T05:20:58;98129.50;;;39.55;38.62
31225;BME280;17847;31.524;74.366;2023-05-23T05:23:27;98123.56;;;39.60;37.46
31225;BME280;17847;31.524;74.366;2023-05-23T05:25:58;98118.03;;;39.74;37.11
31225;BME280;17847;31.524;74.366;2023-05-23T05:28:28;98117.16;;;39.88;35.25
31225;BME280;17847;31.524;74.366;2023-05-23T05:30:58;98113.25;;;39.75;36.32
31225;BME280;17847;31.524;74.366;2023-05-23T05:33:28;98112.84;;;39.62;40.74
31225;BME280;17847;31.524;74.366;2023-05-23T05:36:08;98108.09;;;39.63;37.36
31225;BME280;17847;31.524;74.366;2023-05-23T05:38:38;98110.09;;;39.51;36.32
31225;BME280;17847;31.524;74.366;2023-05-23T05:41:07;98108.88;;;39.67;36.88
31225;BME280;17847;31.524;74.366;2023-05-23T05:43:41;98110.88;;;39.77;37.59
31225;BME280;17847;31.524;74.366;2023-05-23T05:46:11;98113.22;;;39.71;36.42
31225;BME280;17847;31.524;74.366;2023-05-23T05:48:41;98102.50;;;39.91;34.21
31225;BME280;17847;31.524;74.366;2023-05-23T05:51:12;98102.94;;;39.82;32.57
31225;BME280;17847;31.524;74.366;2023-05-23T05:53:42;98113.59;;;39.94;34.39
31225;BME280;17847;31.524;74.366;2023-05-23T05:56:12;98100.56;;;39.81;30.66
31225;BME280;17847;31.524;74.366;2023-05-23T05:58:41;98099.75;;;39.73;34.42
31225;BME280;17847;31.524;74.366;2023-05-23T06:01:13;98089.50;;;39.45;33.24
31225;BME280;17847;31.524;74.366;2023-05-23T06:03:42;98088.31;;;39.29;35.47
31225;BME280;17847;31.524;74.366;2023-05-23T06:06:12;98087.91;;;39.13;34.38
31225;BME280;17847;31.524;74.366;2023-05-23T06:08:43;98083.97;;;39.28;30.00
31225;BME280;17847;31.524;74.366;2023-05-23T06:11:16;98092.28;;;39.35;35.72
31225;BME280;17847;31.524;74.366;2023-05-23T06:13:45;98082.41;;;39.20;37.69
31225;BME280;17847;31.524;74.366;2023-05-23T06:16:15;98087.94;;;39.09;38.44
31225;BME280;17847;31.524;74.366;2023-05-23T06:18:45;98082.00;;;38.96;30.20
31225;BME280;17847;31.524;74.366;2023-05-23T06:21:14;98067.31;;;38.75;29.34
31225;BME280;17847;31.524;74.366;2023-05-23T06:23:48;98076.03;;;38.84;33.42
31225;BME280;17847;31.524;74.366;2023-05-23T06:26:18;98072.06;;;38.71;30.12
31225;BME280;17847;31.524;74.366;2023-05-23T06:28:48;98073.28;;;38.87;31.69
31225;BME280;17847;31.524;74.366;2023-05-23T06:31:17;98064.94;;;38.80;30.07
31225;BME280;17847;31.524;74.366;2023-05-23T06:33:46;98070.06;;;38.64;36.16
31225;BME280;17847;31.524;74.366;2023-05-23T06:36:16;98060.19;;;38.70;31.73
31225;BME280;17847;31.524;74.366;2023-05-23T06:38:47;98055.44;;;38.63;33.72
31225;BME280;17847;31.524;74.366;2023-05-23T06:41:17;98056.63;;;38.70;35.03
31225;BME280;17847;31.524;74.366;2023-05-23T06:43:47;98054.66;;;38.67;34.84
31225;BME280;17847;31.524;74.366;2023-05-23T06:46:22;98043.97;;;38.65;34.57
31225;BME280;17847;31.524;74.366;2023-05-23T06:48:52;98047.94;;;38.85;33.69
31225;BME280;17847;31.524;74.366;2023-05-23T06:51:42;98049.94;;;38.92;34.44
31225;BME280;17847;31.524;74.366;2023-05-23T06:54:11;98046.00;;;38.89;33.00
31225;BME280;17847;31.524;74.366;2023-05-23T06:56:41;98043.63;;;38.98;30.36
31225;BME280;17847;31.524;74.366;2023-05-23T06:59:10;98039.25;;;39.01;32.63
31225;BME280;17847;31.524;74.366;2023-05-23T07:01:40;98040.44;;;38.96;32.39
31225;BME280;17847;31.524;74.366;2023-05-23T07:04:10;98035.72;;;38.93;31.12
31225;BME280;17847;31.524;74.366;2023-05-23T07:06:40;98032.94;;;38.90;31.92
31225;BME280;17847;31.524;74.366;2023-05-23T07:09:09;98029.75;;;38.84;33.69
31225;BME280;17847;31.524;74.366;2023-05-23T07:11:40;98026.19;;;38.87;33.47
31225;BME280;17847;31.524;74.366;2023-05-23T07:14:10;98027.00;;;39.02;33.40
31225;BME280;17847;31.524;74.366;2023-05-23T07:16:41;98023.00;;;39.14;32.74
31225;BME280;17847;31.524;74.366;2023-05-23T07:19:11;98016.28;;;39.18;31.99
31225;BME280;17847;31.524;74.366;2023-05-23T07:21:45;98012.72;;;39.18;32.06
31225;BME280;17847;31.524;74.366;2023-05-23T07:24:16;98006.38;;;39.14;32.38
31225;BME280;17847;31.524;74.366;2023-05-23T07:26:47;98006.00;;;39.19;34.08
31225;BME280;17847;31.524;74.366;2023-05-23T07:29:16;98004.41;;;39.25;32.93
31225;BME280;17847;31.524;74.366;2023-05-23T07:31:48;98001.63;;;39.18;31.45
31225;BME280;17847;31.524;74.366;2023-05-23T07:34:19;98007.19;;;39.11;32.01
31225;BME280;17847;31.524;74.366;2023-05-23T07:36:53;97993.72;;;39.13;31.08
31225;BME280;17847;31.524;74.366;2023-05-23T07:39:26;97983.06;;;39.11;30.64
31225;BME280;17847;31.524;74.366;2023-05-23T07:41:58;97983.81;;;39.33;31.37
31225;BME280;17847;31.524;74.366;2023-05-23T07:44:28;97985.00;;;39.35;31.29
31225;BME280;17847;31.524;74.366;2023-05-23T07:46:58;97984.19;;;39.35;32.69
31225;BME280;17847;31.524;74.366;2023-05-23T07:49:28;97988.97;;;39.31;32.24
31225;BME280;17847;31.524;74.366;2023-05-23T07:51:58;97983.41;;;39.31;33.68
31225;BME280;17847;31.524;74.366;2023-05-23T07:54:27;97975.09;;;39.31;32.79
31225;BME280;17847;31.524;74.366;2023-05-23T07:56:58;97971.94;;;39.32;33.32
31225;BME280;17847;31.524;74.366;2023-05-23T07:59:28;97969.13;;;39.39;31.87
31225;BME280;17847;31.524;74.366;2023-05-23T08:01:58;97964.41;;;39.36;30.30
31225;BME280;17847;31.524;74.366;2023-05-23T08:04:28;97962.03;;;39.24;32.09
31225;BME280;17847;31.524;74.366;2023-05-23T08:06:58;97952.16;;;39.20;30.88
31225;BME280;17847;31.524;74.366;2023-05-23T08:09:55;97958.06;;;39.29;33.78
31225;BME280;17847;31.524;74.366;2023-05-23T08:12:25;97942.66;;;39.24;31.65
31225;BME280;17847;31.524;74.366;2023-05-23T08:15:06;97943.47;;;39.11;32.95
31225;BME280;17847;31.524;74.366;2023-05-23T08:17:41;97937.56;;;39.01;32.13
31225;BME280;17847;31.524;74.366;2023-05-23T08:20:15;97939.91;;;38.99;33.33
31225;BME280;17847;31.524;74.366;2023-05-23T08:22:45;97927.69;;;38.86;31.02
31225;BME280;17847;31.524;74.366;2023-05-23T08:25:14;97929.25;;;38.84;31.68
31225;BME280;17847;31.524;74.366;2023-05-23T08:27:44;97921.75;;;38.81;32.34
31225;BME280;17847;31.524;74.366;2023-05-23T08:30:36;97922.94;;;38.69;31.40
31225;BME280;17847;31.524;74.366;2023-05-23T08:33:06;97918.22;;;38.52;31.81
31225;BME280;17847;31.524;74.366;2023-05-23T08:35:39;97918.63;;;38.50;31.47
31225;BME280;17847;31.524;74.366;2023-05-23T08:38:11;97917.03;;;38.53;32.32
31225;BME280;17847;31.524;74.366;2023-05-23T08:40:59;97924.13;;;38.43;32.69
31225;BME280;17847;31.524;74.366;2023-05-23T08:43:30;97934.81;;;38.45;32.37
31225;BME280;17847;31.524;74.366;2023-05-23T08:46:01;97944.25;;;38.15;31.93
31225;BME280;17847;31.524;74.366;2023-05-23T08:48:34;97953.28;;;37.98;32.50
31225;BME280;17847;31.524;74.366;2023-05-23T08:51:09;97955.19;;;37.80;31.77
31225;BME280;17847;31.524;74.366;2023-05-23T08:53:41;97953.16;;;37.63;31.26
31225;BME280;17847;31.524;74.366;2023-05-23T08:56:14;97960.97;;;37.47;31.64
31225;BME280;17847;31.524;74.366;2023-05-23T08:58:48;97965.94;;;37.16;31.38
31225;BME280;17847;31.524;74.366;2023-05-23T09:01:19;97961.47;;;37.05;32.09
31225;BME280;17847;31.524;74.366;2023-05-23T09:03:54;97972.81;;;36.85;31.75
31225;BME280;17847;31.524;74.366;2023-05-23T09:06:35;97980.13;;;36.60;31.69
31225;BME280;17847;31.524;74.366;2023-05-23T09:09:05;97974.47;;;36.50;30.94
31225;BME280;17847;31.524;74.366;2023-05-23T09:11:35;97977.91;;;36.39;31.68
31225;BME280;17847;31.524;74.366;2023-05-23T09:14:08;97974.66;;;36.27;30.61
31225;BME280;17847;31.524;74.366;2023-05-23T09:16:38;97978.06;;;36.13;31.44
31225;BME280;17847;31.524;74.366;2023-05-23T09:19:13;97965.00;;;36.10;32.00
31225;BME280;17847;31.524;74.366;2023-05-23T09:21:50;97964.56;;;36.08;30.85
31225;BME280;17847;31.524;74.366;2023-05-23T09:24:33;97974.38;;;36.02;31.51
31225;BME280;17847;31.524;74.366;2023-05-23T09:27:08;97966.50;;;36.04;30.82
31225;BME280;17847;31.524;74.366;2023-05-23T09:29:37;97958.63;;;36.02;30.97
31225;BME280;17847;31.524;74.366;2023-05-23T09:32:15;97968.09;;;36.05;32.05
31225;BME280;17847;31.524;74.366;2023-05-23T09:34:59;97964.53;;;36.04;32.45
31225;BME280;17847;31.524;74.366;2023-05-23T09:40:09;97956.25;;;36.01;32.89
31225;BME280;17847;31.524;74.366;2023-05-23T09:42:46;97950.28;;;35.99;33.97
31225;BME280;17847;31.524;74.366;2023-05-23T09:45:17;97944.75;;;35.95;33.86
31225;BME280;17847;31.524;74.366;2023-05-23T09:47:53;97927.91;;;36.04;33.90
31225;BME280;17847;31.524;74.366;2023-05-23T09:50:30;97933.81;;;36.02;33.95
31225;BME280;17847;31.524;74.366;2023-05-23T09:53:04;97934.66;;;36.10;32.68
31225;BME280;17847;31.524;74.366;2023-05-23T09:55:33;97919.34;;;36.13;32.42
31225;BME280;17847;31.524;74.366;2023-05-23T09:58:05;97922.94;;;36.17;33.04
31225;BME280;17847;31.524;74.366;2023-05-23T10:00:36;97910.34;;;36.19;34.24
31225;BME280;17847;31.524;74.366;2023-05-23T10:03:12;97907.19;;;36.21;33.58
31225;BME280;17847;31.524;74.366;2023-05-23T10:05:56;97898.56;;;36.22;33.34
31225;BME280;17847;31.524;74.366;2023-05-23T10:13:44;97874.09;;;36.21;34.44
31225;BME280;17847;31.524;74.366;2023-05-23T10:19:16;97863.53;;;36.30;35.36
31225;BME280;17847;31.524;74.366;2023-05-23T10:21:50;97850.63;;;36.37;35.73
31225;BME280;17847;31.524;74.366;2023-05-23T10:24:23;97840.41;;;36.45;35.94
31225;BME280;17847;31.524;74.366;2023-05-23T10:26:54;97845.50;;;36.43;34.96
31225;BME280;17847;31.524;74.366;2023-05-23T10:29:25;97865.59;;;36.36;35.43
31225;BME280;17847;31.524;74.366;2023-05-23T10:31:55;97874.97;;;36.28;35.80
31225;BME280;17847;31.524;74.366;2023-05-23T10:37:06;97874.84;;;36.14;35.34
31225;BME280;17847;31.524;74.366;2023-05-23T10:39:57;97869.22;;;36.07;35.50
31225;BME280;17847;31.524;74.366;2023-05-23T10:42:43;97865.25;;;36.01;34.04
31225;BME280;17847;31.524;74.366;2023-05-23T10:45:16;97860.47;;;35.94;32.14
31225;BME280;17847;31.524;74.366;2023-05-23T10:47:50;97849.03;;;35.92;33.19
31225;BME280;17847;31.524;74.366;2023-05-23T10:53:04;97844.72;;;35.95;31.30
31225;BME280;17847;31.524;74.366;2023-05-23T10:55:35;97841.97;;;35.98;31.80
31225;BME280;17847;31.524;74.366;2023-05-23T10:58:09;97846.72;;;35.98;30.82
31225;BME280;17847;31.524;74.366;2023-05-23T11:00:59;97835.69;;;35.98;29.99
31225;BME280;17847;31.524;74.366;2023-05-23T11:06:06;97818.03;;;36.06;29.70
31225;BME280;17847;31.524;74.366;2023-05-23T11:12:01;97807.00;;;36.06;30.47
31225;BME280;17847;31.524;74.366;2023-05-23T11:14:52;97796.06;;;36.17;27.67
31225;BME280;17847;31.524;74.366;2023-05-23T11:17:51;97791.81;;;36.26;28.06
31225;BME280;17847;31.524;74.366;2023-05-23T11:20:24;97784.34;;;36.30;28.83
31225;BME280;17847;31.524;74.366;2023-05-23T11:23:00;97785.63;;;36.43;29.01
31225;BME280;17847;31.524;74.366;2023-05-23T11:25:42;97778.56;;;36.50;28.92
31225;BME280;17847;31.524;74.366;2023-05-23T11:28:13;97768.34;;;36.57;30.06
31225;BME280;17847;31.524;74.366;2023-05-23T11:30:47;97762.50;;;36.66;29.25
31225;BME280;17847;31.524;74.366;2023-05-23T11:33:17;97759.38;;;36.71;29.66
31225;BME280;17847;31.524;74.366;2023-05-23T11:35:48;97749.94;;;36.79;27.89
31225;BME280;17847;31.524;74.366;2023-05-23T11:38:19;97740.13;;;36.81;29.39
31225;BME280;17847;31.524;74.366;2023-05-23T11:40:49;97738.09;;;36.68;28.46
31225;BME280;17847;31.524;74.366;2023-05-23T11:43:18;97738.13;;;36.78;26.71
31225;BME280;17847;31.524;74.366;2023-05-23T11:45:48;97736.56;;;36.81;27.63
31225;BME280;17847;31.524;74.366;2023-05-23T11:48:17;97724.72;;;36.77;29.61
31225;BME280;17847;31.524;74.366;2023-05-23T11:50:49;97717.25;;;36.81;27.86
31225;BME280;17847;31.524;74.366;2023-05-23T11:53:22;97718.41;;;36.80;27.99
31225;BME280;17847;31.524;74.366;2023-05-23T11:55:55;97716.03;;;36.78;25.99
31225;BME280;17847;31.524;74.366;2023-05-23T11:58:26;97707.78;;;36.82;26.70
31225;BME280;17847;31.524;74.366;2023-05-23T12:01:03;97697.13;;;36.80;26.59
31225;BME280;17847;31.524;74.366;2023-05-23T12:03:34;97697.50;;;36.79;26.62
31225;BME280;17847;31.524;74.366;2023-05-23T12:06:17;97692.41;;;36.81;26.45
31225;BME280;17847;31.524;74.366;2023-05-23T12:08:48;97688.84;;;36.80;25.78
31225;BME280;17847;31.524;74.366;2023-05-23T12:11:17;97674.63;;;36.75;25.99
31225;BME280;17847;31.524;74.366;2023-05-23T12:13:46;97675.00;;;36.70;27.13
31225;BME280;17847;31.524;74.366;2023-05-23T12:16:16;97670.69;;;36.72;26.79
31225;BME280;17847;31.524;74.366;2023-05-23T12:18:46;97668.69;;;36.69;26.95
31225;BME280;17847;31.524;74.366;2023-05-23T12:21:15;97666.72;;;36.66;26.31
31225;BME280;17847;31.524;74.366;2023-05-23T12:23:45;97666.34;;;36.64;27.04
31225;BME280;17847;31.524;74.366;2023-05-23T12:26:15;97665.53;;;36.64;26.53
31225;BME280;17847;31.524;74.366;2023-05-23T12:28:45;97663.94;;;36.66;27.30
31225;BME280;17847;31.524;74.366;2023-05-23T12:31:20;97658.44;;;36.63;26.66
31225;BME280;17847;31.524;74.366;2023-05-23T12:33:52;97657.97;;;36.57;27.56
31225;BME280;17847;31.524;74.366;2023-05-23T12:36:25;97652.88;;;36.56;26.78
31225;BME280;17847;31.524;74.366;2023-05-23T12:39:02;97656.38;;;36.49;27.37
31225;BME280;17847;31.524;74.366;2023-05-23T12:41:32;97653.97;;;36.40;28.08
31225;BME280;17847;31.524;74.366;2023-05-23T12:44:02;97654.72;;;36.34;29.81
31225;BME280;17847;31.524;74.366;2023-05-23T12:46:32;97660.22;;;36.23;32.03
31225;BME280;17847;31.524;74.366;2023-05-23T12:49:02;97647.47;;;36.08;31.19
31225;BME280;17847;31.524;74.366;2023-05-23T12:51:31;97655.28;;;35.95;32.01
31225;BME280;17847;31.524;74.366;2023-05-23T12:54:01;97663.09;;;35.83;33.54
31225;BME280;17847;31.524;74.366;2023-05-23T12:56:31;97658.25;;;35.66;31.71
31225;BME280;17847;31.524;74.366;2023-05-23T12:59:02;97654.22;;;35.56;34.34
31225;BME280;17847;31.524;74.366;2023-05-23T13:01:33;97663.59;;;35.48;32.77
31225;BME280;17847;31.524;74.366;2023-05-23T13:04:02;97658.41;;;35.39;33.43
31225;BME280;17847;31.524;74.366;2023-05-23T13:06:32;97663.84;;;35.32;30.59
31225;BME280;17847;31.524;74.366;2023-05-23T13:09:02;97656.72;;;35.28;30.36
31225;BME280;17847;31.524;74.366;2023-05-23T13:11:31;97666.97;;;35.27;31.38
31225;BME280;17847;31.524;74.366;2023-05-23T13:14:01;97660.19;;;35.18;30.67
31225;BME280;17847;31.524;74.366;2023-05-23T13:16:43;97663.22;;;35.09;32.26
31225;BME280;17847;31.524;74.366;2023-05-23T13:19:13;97657.22;;;34.96;35.96
31225;BME280;17847;31.524;74.366;2023-05-23T13:21:42;97657.09;;;34.86;36.57
31225;BME280;17847;31.524;74.366;2023-05-23T13:24:16;97664.09;;;34.80;35.64
31225;BME280;17847;31.524;74.366;2023-05-23T13:26:47;97673.06;;;34.73;34.88
31225;BME280;17847;31.524;74.366;2023-05-23T13:29:16;97671.06;;;34.70;34.89
31225;BME280;17847;31.524;74.366;2023-05-23T13:31:45;97667.41;;;34.62;34.49
31225;BME280;17847;31.524;74.366;2023-05-23T13:34:15;97679.50;;;34.54;35.87
31225;BME280;17847;31.524;74.366;2023-05-23T13:36:44;97677.00;;;34.42;37.80
31225;BME280;17847;31.524;74.366;2023-05-23T13:39:14;97681.16;;;34.29;39.14
31225;BME280;17847;31.524;74.366;2023-05-23T13:41:46;97684.97;;;34.21;38.08
31225;BME280;17847;31.524;74.366;2023-05-23T13:44:16;97683.66;;;34.15;36.16